11/24 19:00 XV

2,500ft‚ɉ_‚ª­‚µ

’nã•—: 320‹5kt
(280‹` 360‹‚Å•Ï“®)

ã‹ó•—
13,000ft: 270‹54kt
10,000ft: 270‹25kt
 7,000ft: –¢Œv‘ª
 3,000ft: –¢Œv‘ª

’nãF 7Ž
ã‹óF -18.4Ž

“ú–vF 16:30

ŽÀ‹µ“V‹C}


—\‘z“V‹C}


RJTJ 241000Z 32005KT 280V360 9999 FEW025 07/00 Q1016 RMK 1CU025 A3002=

GPV‹CÛ—\•ñ
‹CÛ’¡
“ú–{‹CÛ‹¦‰ï

‹Ê—„ƒ_ƒ€•ú—¬—Ê(1,000m3/s‚ð’´‚¦‚½7ŽžŠÔŒã‚ÉDZŠ¥…)
‘¾˜Y‰q–å‹´ƒeƒŒƒ[ƒ^…ˆÊ(11m‚ÅDZŠ¥…)

skydive.jp